Time;durP1;ratioP1;P1;durP2;ratioP2;P2;SDS_P1;SDS_P2;PMS_P1;PMS_P2;Temp;Humidity;BMP_temperature;BMP_pressure;BME280_temperature;BME280_humidity;BME280_pressure;Samples;Min_cycle;Max_cycle;Signal;HPM_P1;HPM_P2
2020/12/04 00:00:53;;;;;;;26.70;15.40;;;;;;;0.83;77.39;96606.06;4918257;29;20454;-69
2020/12/04 00:03:19;;;;;;;30.75;16.08;;;;;;;0.82;77.30;96604.38;4918162;29;20038;-69
2020/12/04 00:05:44;;;;;;;25.60;15.05;;;;;;;0.80;77.37;96602.72;4918245;29;20470;-69
2020/12/04 00:08:09;;;;;;;30.35;15.95;;;;;;;0.86;77.53;96600.91;4918144;29;20028;-70
2020/12/04 00:10:35;;;;;;;29.00;16.25;;;;;;;0.82;77.18;96600.97;4917982;29;20032;-69
2020/12/04 00:13:00;;;;;;;25.13;15.95;;;;;;;0.73;77.80;96607.09;4917822;29;20035;-69
2020/12/04 00:15:25;;;;;;;27.83;17.05;;;;;;;0.75;78.06;96588.34;4917934;29;20063;-69
2020/12/04 00:17:51;;;;;;;37.65;18.58;;;;;;;0.71;77.87;96579.06;4917852;29;20123;-69
2020/12/04 00:20:16;;;;;;;29.65;16.15;;;;;;;0.71;78.08;96581.59;4917945;29;20118;-70
2020/12/04 00:22:41;;;;;;;29.58;16.13;;;;;;;0.76;78.10;96561.16;4917746;29;20067;-70
2020/12/04 00:25:07;;;;;;;25.75;15.35;;;;;;;0.80;77.68;96552.59;4917886;29;20024;-69
2020/12/04 00:27:32;;;;;;;31.20;14.60;;;;;;;0.89;76.80;96526.13;4917796;29;20085;-70
2020/12/04 00:29:57;;;;;;;24.67;14.05;;;;;;;1.04;76.02;96502.91;4917963;29;20059;-70
2020/12/04 00:32:23;;;;;;;25.27;15.05;;;;;;;1.12;75.31;96498.53;4917809;29;20055;-70
2020/12/04 00:34:48;;;;;;;25.92;14.48;;;;;;;1.19;75.14;96479.69;4917859;29;20064;-70
2020/12/04 00:37:13;;;;;;;26.98;14.65;;;;;;;1.27;74.56;96462.53;4917641;29;20059;-70
2020/12/04 00:39:39;;;;;;;24.83;14.52;;;;;;;1.34;74.11;96455.59;4917553;29;20434;-70
2020/12/04 00:42:04;;;;;;;23.35;13.50;;;;;;;1.42;73.09;96455.47;4917646;29;20028;-70
2020/12/04 00:44:29;;;;;;;24.70;13.90;;;;;;;1.48;73.32;96457.88;4917335;29;20028;-70
2020/12/04 00:46:55;;;;;;;23.42;13.88;;;;;;;1.46;73.02;96467.31;4917662;29;20032;-69
2020/12/04 00:49:20;;;;;;;26.50;14.70;;;;;;;1.40;74.78;96503.09;4916147;29;20079;-69
2020/12/04 00:51:45;;;;;;;25.83;14.90;;;;;;;1.26;75.86;96516.97;4917388;29;20055;-70
2020/12/04 00:54:11;;;;;;;28.17;15.00;;;;;;;1.18;75.78;96518.81;4917103;29;20107;-70
2020/12/04 00:56:36;;;;;;;24.77;14.00;;;;;;;1.07;75.92;96520.72;4916144;29;20072;-69
2020/12/04 00:59:02;;;;;;;26.25;15.98;;;;;;;1.16;76.33;96505.28;4917090;29;20175;-70
2020/12/04 07:02:09;;;;;;;27.45;13.05;;;;;;;1.50;76.81;96285.22;5211194;23;20051;-67
2020/12/04 07:04:37;;;;;;;21.75;13.38;;;;;;;1.54;77.24;96286.81;4933775;29;20048;-67
2020/12/04 07:07:12;;;;;;;24.15;12.85;;;;;;;1.55;77.57;96278.31;4933944;29;20031;-67
2020/12/04 07:09:40;;;;;;;22.65;12.90;;;;;;;1.55;77.46;96280.84;4934001;29;20028;-67
2020/12/04 07:12:08;;;;;;;20.88;11.70;;;;;;;1.51;77.77;96276.69;4933851;29;20055;-66
2020/12/04 07:14:36;;;;;;;24.48;12.20;;;;;;;1.49;78.16;96273.31;4948949;29;20396;-67
2020/12/04 07:17:01;;;;;;;17.65;11.48;;;;;;;1.41;77.99;96267.56;4933803;29;20031;-68
2020/12/04 07:19:27;;;;;;;20.00;11.63;;;;;;;1.43;77.89;96279.41;4933782;29;20027;-68
2020/12/04 07:21:53;;;;;;;21.30;11.48;;;;;;;1.44;78.04;96280.22;4933685;29;20035;-68
2020/12/04 07:24:19;;;;;;;21.90;11.32;;;;;;;1.45;77.75;96287.88;4934011;29;20489;-68
2020/12/04 07:26:53;;;;;;;21.45;12.57;;;;;;;1.62;77.33;96292.59;4933700;29;20059;-68
2020/12/04 07:29:18;;;;;;;26.60;13.70;;;;;;;1.59;76.34;96300.28;4933923;29;20019;-68
2020/12/04 07:31:46;;;;;;;24.80;12.77;;;;;;;1.56;76.57;96302.94;4933727;29;20106;-68
2020/12/04 07:34:12;;;;;;;27.40;14.25;;;;;;;1.56;77.19;96305.50;4933560;29;20677;-68
2020/12/04 07:36:47;;;;;;;26.80;15.73;;;;;;;1.77;76.40;96310.09;4933933;29;20038;-68
2020/12/04 07:39:24;;;;;;;23.60;14.80;;;;;;;1.73;76.18;96298.25;4933891;29;20015;-68
2020/12/04 07:41:49;;;;;;;21.02;11.88;;;;;;;1.90;75.73;96299.59;4933545;29;20024;-68
2020/12/04 07:44:15;;;;;;;22.92;11.80;;;;;;;1.87;75.79;96286.91;4933709;29;20113;-68
2020/12/04 07:46:40;;;;;;;21.77;12.10;;;;;;;1.84;76.05;96279.31;4933575;29;20086;-68
2020/12/04 07:49:08;;;;;;;23.88;12.00;;;;;;;1.86;75.72;96287.78;4933896;29;20028;-68
2020/12/04 07:51:36;;;;;;;23.38;11.98;;;;;;;1.95;75.93;96290.13;4933502;29;20032;-68
2020/12/04 07:54:05;;;;;;;22.65;13.13;;;;;;;1.85;76.14;96291.22;4933601;29;20019;-68
2020/12/04 07:56:31;;;;;;;21.35;12.65;;;;;;;1.78;75.94;96278.56;4933492;29;20035;-68
2020/12/04 07:59:02;;;;;;;28.65;12.85;;;;;;;1.77;76.58;96289.66;4933518;29;20079;-71
2020/12/04 08:01:28;;;;;;;31.10;13.40;;;;;;;1.79;76.41;96298.16;4933306;29;20038;-71
2020/12/04 08:03:55;;;;;;;24.40;11.95;;;;;;;1.95;76.25;96293.50;4933320;29;20027;-71
2020/12/04 08:06:29;;;;;;;26.75;12.48;;;;;;;1.89;75.92;96303.03;4933558;29;20047;-71
2020/12/04 08:09:14;;;;;;;19.63;11.45;;;;;;;1.89;75.39;96282.63;4933443;29;20038;-72
2020/12/04 08:11:54;;;;;;;22.70;12.48;;;;;;;1.96;75.89;96263.69;4933125;29;20540;-67
2020/12/04 08:14:29;;;;;;;;;;;;;;;2.06;75.69;96270.25;4933898;29;20032;-69
2020/12/04 08:16:59;;;;;;;19.52;11.85;;;;;;;1.98;76.00;96262.81;4934941;29;19918;-71
2020/12/04 08:19:29;;;;;;;22.40;11.68;;;;;;;2.05;75.44;96255.81;4936997;29;20321;-72
2020/12/04 08:22:13;;;;;;;22.77;11.98;;;;;;;2.12;75.87;96234.34;4936863;29;20118;-72
2020/12/04 08:25:07;;;;;;;25.05;11.93;;;;;;;2.21;75.27;96226.44;4936913;29;20394;-72
2020/12/04 08:27:35;;;;;;;22.60;12.15;;;;;;;2.10;76.12;96218.22;4936733;29;20047;-71
2020/12/04 08:30:05;;;;;;;26.48;12.75;;;;;;;2.09;75.99;96221.66;4936923;29;20030;-71
2020/12/04 08:32:31;;;;;;;18.17;11.20;;;;;;;2.17;75.43;96217.16;4936480;29;20035;-71
2020/12/04 08:35:23;;;;;;;25.67;11.55;;;;;;;2.03;75.75;96222.66;4936837;29;20035;-71
2020/12/04 08:37:50;;;;;;;20.83;11.93;;;;;;;2.12;76.03;96226.69;4936491;29;20512;-71
2020/12/04 08:40:27;;;;;;;20.50;11.98;;;;;;;2.26;75.57;96233.97;4936599;29;20036;-72
2020/12/04 08:42:53;;;;;;;18.95;10.38;;;;;;;2.46;74.14;96223.22;4936341;29;20024;-71
2020/12/04 08:45:28;;;;;;;19.52;11.20;;;;;;;2.40;73.88;96208.06;4936578;29;20023;-72
2020/12/04 08:48:05;;;;;;;32.53;13.57;;;;;;;2.53;73.88;96183.84;4936431;29;20556;-72
2020/12/04 08:50:30;;;;;;;23.33;12.25;;;;;;;2.62;73.64;96187.88;4936472;29;20060;-71
2020/12/04 08:52:56;;;;;;;20.83;11.35;;;;;;;2.47;73.92;96194.25;4936091;29;20035;-71
2020/12/04 08:55:24;;;;;;;22.95;10.90;;;;;;;2.46;73.89;96197.66;4936325;29;20031;-72
2020/12/04 08:57:54;;;;;;;26.15;12.23;;;;;;;2.57;73.88;96201.63;4936185;29;20052;-72
2020/12/04 09:00:27;;;;;;;18.85;10.82;;;;;;;2.73;73.45;96207.13;4932119;29;20285;-71
2020/12/04 09:02:52;;;;;;;20.08;11.07;;;;;;;2.74;73.15;96229.25;4935364;29;20111;-72
2020/12/04 09:05:18;;;;;;;16.65;10.55;;;;;;;2.91;72.44;96230.50;4936060;29;20464;-71
2020/12/04 09:07:44;;;;;;;24.40;11.43;;;;;;;3.07;71.19;96231.72;4933677;29;20469;-71
2020/12/04 09:10:12;;;;;;;20.23;11.00;;;;;;;3.08;71.32;96215.47;4936063;29;20110;-72
2020/12/04 09:12:38;;;;;;;20.65;11.63;;;;;;;3.08;71.70;96228.28;4920049;29;20080;-73
2020/12/04 09:15:06;;;;;;;20.08;11.65;;;;;;;3.19;72.01;96223.69;4931658;29;20107;-72
2020/12/04 09:17:31;;;;;;;21.15;11.52;;;;;;;3.15;72.12;96214.44;4924572;29;20051;-72
2020/12/04 09:19:57;;;;;;;21.98;11.63;;;;;;;3.17;72.31;96217.78;4924742;29;20075;-72
2020/12/04 09:22:22;;;;;;;18.73;10.90;;;;;;;3.38;72.33;96220.56;4929587;29;20035;-71
2020/12/04 09:24:48;;;;;;;18.73;12.25;;;;;;;3.68;71.45;96219.59;4920033;29;20028;-68
2020/12/04 09:27:13;;;;;;;18.35;10.52;;;;;;;3.84;70.89;96210.53;4930146;29;20111;-68
2020/12/04 09:29:39;;;;;;;21.77;12.43;;;;;;;3.73;71.08;96211.78;4925354;29;20445;-68
2020/12/04 09:32:16;;;;;;;19.63;11.63;;;;;;;3.70;71.41;96217.81;4923419;29;20400;-68
2020/12/04 09:34:44;;;;;;;21.45;12.50;;;;;;;3.93;70.97;96218.81;4932115;29;20024;-68
2020/12/04 09:37:27;;;;;;;25.33;11.30;;;;;;;4.20;70.09;96212.72;4921344;29;20020;-68
2020/12/04 09:39:58;;;;;;;23.25;11.23;;;;;;;4.23;69.54;96217.75;4924922;29;20062;-68
2020/12/04 09:42:25;;;;;;;16.90;11.45;;;;;;;4.46;68.92;96226.41;4930762;29;20042;-68
2020/12/04 09:44:51;;;;;;;18.55;10.93;;;;;;;4.58;67.88;96223.38;4919605;29;20485;-68
2020/12/04 09:47:17;;;;;;;19.80;11.50;;;;;;;4.54;67.65;96216.69;4929705;29;20039;-68
2020/12/04 09:49:45;;;;;;;17.05;11.27;;;;;;;4.67;68.03;96215.38;4925575;29;20046;-68
2020/12/04 09:52:12;;;;;;;19.65;10.75;;;;;;;4.34;67.96;96209.69;4933791;29;20028;-68
2020/12/04 09:54:40;;;;;;;18.95;10.57;;;;;;;4.15;68.23;96204.38;4934966;29;20055;-69
2020/12/04 09:57:07;;;;;;;19.27;10.63;;;;;;;4.31;68.66;96190.16;4934816;29;20031;-69
2020/12/04 09:59:33;;;;;;;15.80;10.27;;;;;;;4.26;68.43;96186.91;4927190;29;20478;-68
2020/12/04 10:01:59;;;;;;;24.73;11.07;;;;;;;4.21;67.93;96173.44;4926875;29;20501;-68
2020/12/04 10:04:25;;;;;;;19.95;10.93;;;;;;;4.37;67.94;96187.38;4920414;29;20355;-68
2020/12/04 10:06:52;;;;;;;22.45;10.40;;;;;;;4.48;67.83;96183.59;4931745;29;20039;-69
2020/12/04 10:09:18;;;;;;;17.33;9.98;;;;;;;4.23;67.65;96176.75;4921820;29;20020;-69
2020/12/04 10:11:43;;;;;;;17.85;10.60;;;;;;;4.15;67.34;96183.88;4925632;29;20032;-68
2020/12/04 10:14:09;;;;;;;17.20;9.77;;;;;;;4.10;67.99;96175.50;4928112;29;20019;-68
2020/12/04 10:16:35;;;;;;;17.15;9.55;;;;;;;4.18;67.85;96162.44;4918951;29;20024;-68
2020/12/04 10:19:01;;;;;;;14.05;9.63;;;;;;;4.11;67.16;96178.03;4931106;29;20022;-68
2020/12/04 10:21:27;;;;;;;14.43;9.00;;;;;;;4.10;67.55;96176.34;4922567;29;20396;-67
2020/12/04 10:23:56;;;;;;;16.58;9.35;;;;;;;4.09;66.67;96181.53;4924088;29;20107;-67
2020/12/04 10:26:21;;;;;;;18.83;10.35;;;;;;;4.05;66.97;96190.19;4929807;29;20030;-67
2020/12/04 10:28:47;;;;;;;18.33;9.57;;;;;;;4.06;66.47;96189.31;4917582;29;20477;-67
2020/12/04 10:31:12;;;;;;;17.75;9.20;;;;;;;4.15;66.54;96195.84;4929077;29;20493;-67
2020/12/04 10:33:37;;;;;;;16.85;9.90;;;;;;;4.12;66.72;96189.94;4923842;29;20134;-67
2020/12/04 10:36:03;;;;;;;14.95;9.25;;;;;;;4.36;66.05;96193.41;4922548;29;20597;-67
2020/12/04 10:38:29;;;;;;;22.30;12.68;;;;;;;4.36;66.80;96219.03;4930075;29;20030;-67
2020/12/04 10:40:54;;;;;;;17.83;10.68;;;;;;;4.23;66.79;96204.94;4918044;29;20019;-67
2020/12/04 10:43:20;;;;;;;15.73;9.95;;;;;;;4.29;67.31;96191.09;4927931;29;20406;-67
2020/12/04 10:45:46;;;;;;;17.95;10.55;;;;;;;4.32;68.29;96181.56;4924675;29;20078;-67
2020/12/04 10:48:11;;;;;;;22.30;10.63;;;;;;;4.26;66.72;96171.53;4921898;29;20067;-67
2020/12/04 10:50:36;;;;;;;16.60;9.80;;;;;;;4.44;67.34;96184.59;4930920;29;20603;-67
2020/12/04 10:53:02;;;;;;;18.02;10.77;;;;;;;4.66;66.27;96190.63;4918622;29;20497;-67
2020/12/04 10:55:27;;;;;;;16.67;9.60;;;;;;;4.29;67.18;96186.78;4925812;29;20449;-67
2020/12/04 10:57:52;;;;;;;18.20;10.18;;;;;;;4.17;68.07;96202.59;4925455;29;20053;-67
2020/12/04 11:00:18;;;;;;;24.15;10.50;;;;;;;4.27;67.60;96187.75;4920077;29;20544;-67
2020/12/04 11:02:43;;;;;;;19.58;10.40;;;;;;;4.17;67.69;96182.09;4930302;29;20059;-67
2020/12/04 11:07:52;;;;;;;18.17;10.15;;;;;;;4.21;68.23;96182.84;4923555;29;20113;-67
2020/12/04 11:10:19;;;;;;;20.00;10.93;;;;;;;4.35;67.94;96186.59;4928489;29;20035;-67
2020/12/04 11:12:44;;;;;;;19.25;10.10;;;;;;;4.37;67.41;96184.81;4917772;29;20536;-67
2020/12/04 11:15:09;;;;;;;18.17;10.88;;;;;;;4.44;67.94;96194.84;4929074;29;20023;-67
2020/12/04 11:17:35;;;;;;;20.20;11.02;;;;;;;4.50;67.77;96184.38;4922939;29;20032;-67
2020/12/04 11:20:02;;;;;;;21.55;11.63;;;;;;;4.45;68.66;96176.00;4922147;29;20031;-67
2020/12/04 11:22:27;;;;;;;19.90;11.10;;;;;;;4.69;67.57;96190.53;4929491;29;20035;-67
2020/12/04 11:24:53;;;;;;;21.13;10.35;;;;;;;4.68;68.20;96188.81;4915245;29;20028;-67
2020/12/04 11:27:18;;;;;;;22.73;11.00;;;;;;;4.54;69.03;96178.22;4913672;29;20083;-67
2020/12/04 11:29:44;;;;;;;26.63;11.48;;;;;;;4.66;69.25;96159.84;4923899;29;20155;-67
2020/12/04 11:32:09;;;;;;;19.73;10.55;;;;;;;4.79;67.72;96150.81;4925282;29;20027;-67
2020/12/04 11:34:34;;;;;;;22.90;11.27;;;;;;;4.87;67.58;96159.03;4926728;29;20503;-67
2020/12/04 11:37:00;;;;;;;20.15;9.77;;;;;;;5.03;64.86;96154.19;4923362;29;20417;-67
2020/12/04 11:39:25;;;;;;;16.55;9.40;;;;;;;5.02;64.06;96162.75;4933605;29;20036;-67
2020/12/04 11:41:52;;;;;;;18.55;10.73;;;;;;;5.05;66.01;96161.81;4917787;29;20028;-67
2020/12/04 11:44:17;;;;;;;23.05;11.35;;;;;;;4.78;65.31;96169.63;4930012;29;20036;-67
2020/12/04 11:46:43;;;;;;;17.73;11.13;;;;;;;4.66;65.55;96169.28;4921042;29;20015;-67
2020/12/04 11:49:08;;;;;;;17.88;11.52;;;;;;;4.64;65.59;96159.03;4923711;29;20020;-67
2020/12/04 11:51:33;;;;;;;22.73;11.13;;;;;;;4.71;65.88;96152.81;4930215;29;20099;-67
2020/12/04 11:54:00;;;;;;;25.15;13.80;;;;;;;4.71;66.46;96147.69;4921395;29;20035;-67
2020/12/04 11:56:25;;;;;;;24.35;12.10;;;;;;;4.77;66.41;96144.06;4933007;29;20031;-67
2020/12/04 11:58:50;;;;;;;19.85;11.23;;;;;;;4.70;66.11;96151.16;4925757;29;20016;-67
2020/12/04 12:01:16;;;;;;;19.05;11.50;;;;;;;4.46;66.80;96157.19;4926169;29;20050;-67
2020/12/04 12:03:42;;;;;;;21.10;11.88;;;;;;;4.72;65.69;96157.03;4932167;29;20389;-67
2020/12/04 12:06:07;;;;;;;19.10;10.90;;;;;;;4.60;67.12;96160.09;4921437;29;20117;-67
2020/12/04 12:08:32;;;;;;;22.05;12.02;;;;;;;4.47;66.85;96148.59;4931887;29;20024;-67
2020/12/04 12:10:57;;;;;;;22.45;11.77;;;;;;;4.56;67.05;96156.78;4926594;29;20020;-67
2020/12/04 12:13:23;;;;;;;22.10;11.48;;;;;;;4.31;67.32;96138.91;4924895;29;20060;-67
2020/12/04 12:15:48;;;;;;;19.15;11.52;;;;;;;4.33;67.71;96142.22;4933334;29;20023;-71
2020/12/04 12:18:14;;;;;;;20.95;12.35;;;;;;;4.24;67.66;96137.44;4921066;29;20016;-71
2020/12/04 12:20:39;;;;;;;21.17;12.20;;;;;;;4.10;67.88;96131.94;4930801;29;20072;-71
2020/12/04 12:23:04;;;;;;;28.88;14.23;;;;;;;4.16;68.38;96129.19;4927043;29;20384;-71
2020/12/04 12:25:30;;;;;;;28.55;12.07;;;;;;;4.26;67.79;96139.94;4923780;29;20028;-67
2020/12/04 12:27:56;;;;;;;24.13;12.85;;;;;;;4.29;68.26;96138.09;4933744;29;20083;-67
2020/12/04 12:30:21;;;;;;;18.88;11.77;;;;;;;4.14;68.42;96138.66;4932774;29;20103;-67
2020/12/04 12:32:46;;;;;;;24.17;13.25;;;;;;;4.44;68.71;96134.13;4924806;29;20544;-67
2020/12/04 12:35:12;;;;;;;28.58;12.18;;;;;;;4.47;67.11;96136.59;4926134;29;20111;-67
2020/12/04 12:37:39;;;;;;;22.05;12.10;;;;;;;4.44;68.01;96133.31;4931163;29;20111;-68
2020/12/04 12:40:07;;;;;;;19.98;11.73;;;;;;;4.52;68.11;96126.19;4919492;29;20028;-73
2020/12/04 12:42:32;;;;;;;23.38;12.57;;;;;;;4.30;67.50;96126.13;4930961;29;20087;-73
2020/12/04 12:44:59;;;;;;;24.58;12.05;;;;;;;4.42;67.99;96125.69;4925937;29;20035;-73
2020/12/04 12:47:25;;;;;;;22.65;12.82;;;;;;;4.36;67.87;96124.19;4924312;29;20478;-73
2020/12/04 12:49:50;;;;;;;26.15;13.48;;;;;;;4.29;68.35;96122.72;4933163;29;20034;-73
2020/12/04 12:52:15;;;;;;;25.17;13.38;;;;;;;4.36;68.82;96120.78;4920649;29;20480;-73
2020/12/04 12:54:41;;;;;;;23.30;13.35;;;;;;;4.32;68.38;96124.34;4929919;29;20024;-73
2020/12/04 12:57:06;;;;;;;23.10;12.32;;;;;;;4.45;68.41;96124.72;4926845;29;20059;-68
2020/12/04 12:59:32;;;;;;;22.27;12.70;;;;;;;4.28;69.15;96123.63;4923243;29;20024;-68
2020/12/04 13:01:58;;;;;;;20.80;12.85;;;;;;;4.30;68.52;96132.09;4931794;29;20067;-68
2020/12/04 13:04:24;;;;;;;27.85;13.85;;;;;;;4.32;69.28;96130.31;4920954;29;20031;-68
2020/12/04 13:06:51;;;;;;;21.50;12.20;;;;;;;4.22;68.83;96123.84;4928684;29;20028;-68
2020/12/04 13:09:16;;;;;;;26.65;13.80;;;;;;;4.30;68.39;96121.84;4927944;29;20374;-66
2020/12/04 13:11:42;;;;;;;19.73;11.68;;;;;;;4.22;67.54;96110.19;4921615;29;20035;-66
2020/12/04 13:14:08;;;;;;;19.80;11.15;;;;;;;4.19;67.98;96117.97;4932492;29;20024;-66
2020/12/04 13:16:44;;;;;;;22.38;11.50;;;;;;;4.19;68.18;96121.38;4937418;23;20825;-73
2020/12/04 13:19:11;;;;;;;20.77;11.52;;;;;;;4.05;69.05;96126.97;4945855;29;20113;-72
2020/12/04 13:21:57;;;;;;;20.02;12.63;;;;;;;4.02;69.62;96132.25;4941295;28;20027;-72
2020/12/04 13:24:25;;;;;;;18.58;10.98;;;;;;;3.89;69.55;96137.84;4924652;29;20162;-72
2020/12/04 13:26:51;;;;;;;17.48;11.23;;;;;;;3.85;70.01;96134.53;4939298;28;20062;-71
2020/12/04 13:29:17;;;;;;;24.85;12.57;;;;;;;3.78;70.12;96133.91;4928030;29;20106;-72
2020/12/04 13:31:42;;;;;;;24.17;12.25;;;;;;;3.77;70.43;96133.94;4921441;29;20028;-72
2020/12/04 13:34:07;;;;;;;26.55;13.63;;;;;;;3.79;70.17;96135.56;4932502;29;20023;-72
2020/12/04 13:36:33;;;;;;;23.08;13.05;;;;;;;3.74;70.70;96141.75;4920411;29;20016;-71
2020/12/04 13:38:59;;;;;;;25.23;13.90;;;;;;;3.83;70.67;96152.53;4926995;29;20024;-72
2020/12/04 13:41:24;;;;;;;26.63;14.45;;;;;;;3.83;70.77;96170.44;4928167;29;20062;-71
2020/12/04 13:43:50;;;;;;;27.25;14.02;;;;;;;3.85;70.28;96171.22;4918816;29;20481;-72
2020/12/04 13:46:16;;;;;;;24.58;13.85;;;;;;;3.85;70.27;96170.38;4931877;29;20024;-72
2020/12/04 13:48:42;;;;;;;21.38;13.02;;;;;;;3.91;70.33;96166.78;4928107;29;20016;-72
2020/12/04 13:51:08;;;;;;;23.40;12.23;;;;;;;4.00;69.91;96158.78;4925467;29;20028;-72
2020/12/04 13:53:33;;;;;;;22.45;13.30;;;;;;;3.99;70.00;96169.94;4928946;29;20031;-72
2020/12/04 13:55:59;;;;;;;20.08;11.85;;;;;;;3.89;70.54;96166.00;4934561;29;20065;-72
2020/12/04 13:58:25;;;;;;;20.42;11.82;;;;;;;3.81;70.34;96174.75;4920243;29;20039;-70
2020/12/04 14:00:50;;;;;;;23.52;12.48;;;;;;;3.77;70.33;96174.91;4927596;29;20039;-70
2020/12/04 14:03:16;;;;;;;29.33;14.60;;;;;;;3.71;71.31;96178.53;4926689;29;20020;-70
2020/12/04 14:05:41;;;;;;;25.60;14.07;;;;;;;3.65;71.32;96193.25;4916563;29;20086;-75
2020/12/04 14:08:07;;;;;;;25.55;13.43;;;;;;;3.75;71.26;96182.66;4930073;29;20035;-75
2020/12/04 14:10:32;;;;;;;22.58;13.55;;;;;;;3.79;71.39;96202.16;4921128;29;20378;-70
2020/12/04 14:12:58;;;;;;;23.13;12.13;;;;;;;3.82;71.73;96191.81;4926012;29;20107;-70
2020/12/04 14:15:23;;;;;;;23.33;13.30;;;;;;;3.79;70.79;96193.66;4927638;29;20050;-70
2020/12/04 14:17:49;;;;;;;25.77;12.93;;;;;;;3.72;71.12;96203.22;4919390;29;20060;-70
2020/12/04 14:20:14;;;;;;;27.88;13.55;;;;;;;3.83;72.40;96196.06;4930198;29;20028;-69
2020/12/04 14:22:41;;;;;;;29.15;13.55;;;;;;;3.80;71.15;96203.81;4936344;29;20023;-69
2020/12/04 14:25:07;;;;;;;28.50;14.73;;;;;;;3.76;71.84;96197.13;4924946;29;20028;-71
2020/12/04 14:27:33;;;;;;;26.08;13.25;;;;;;;3.83;71.59;96197.78;4928540;29;20038;-69
2020/12/04 14:29:58;;;;;;;25.17;14.48;;;;;;;3.82;71.36;96201.22;4933350;29;20020;-69
2020/12/04 14:32:23;;;;;;;24.27;14.70;;;;;;;3.67;72.71;96197.44;4926145;29;20108;-69
2020/12/04 14:34:49;;;;;;;30.42;17.10;;;;;;;3.61;72.71;96218.13;4911033;29;20091;-69
2020/12/04 14:37:14;;;;;;;23.17;13.48;;;;;;;3.66;72.63;96217.97;4923701;29;20079;-69
2020/12/04 14:39:39;;;;;;;27.80;15.23;;;;;;;3.58;72.67;96211.38;4929230;29;20054;-69
2020/12/04 14:42:05;;;;;;;27.40;15.25;;;;;;;3.61;73.00;96213.00;4915722;29;20032;-69
2020/12/04 14:44:30;;;;;;;23.13;13.32;;;;;;;3.61;73.60;96207.88;4929311;29;20073;-69
2020/12/04 14:46:55;;;;;;;24.52;13.80;;;;;;;3.62;72.49;96209.53;4922294;29;20492;-69
2020/12/04 14:49:21;;;;;;;23.40;13.63;;;;;;;3.57;73.12;96206.28;4918560;29;20028;-69
2020/12/04 14:51:47;;;;;;;25.40;13.70;;;;;;;3.62;72.44;96214.66;4923362;29;20392;-69
2020/12/04 14:54:14;;;;;;;20.50;12.20;;;;;;;3.64;73.47;96218.03;4896363;29;20039;-69
2020/12/04 14:56:39;;;;;;;26.63;14.38;;;;;;;3.66;73.77;96206.00;4916543;29;20035;-69
2020/12/04 14:59:04;;;;;;;22.02;12.73;;;;;;;4.11;71.39;96195.13;4926910;29;20035;-69
2020/12/04 15:01:30;;;;;;;22.83;13.68;;;;;;;4.27;73.64;96198.00;4923855;29;20512;-69
2020/12/04 15:03:55;;;;;;;33.65;15.48;;;;;;;4.10;72.04;96193.44;4915698;29;20035;-69
2020/12/04 15:06:20;;;;;;;27.40;13.77;;;;;;;3.92;72.82;96205.16;4927007;29;20027;-69
2020/12/04 15:08:46;;;;;;;36.75;18.25;;;;;;;3.76;73.69;96238.09;4918366;29;20114;-69
2020/12/04 15:11:11;;;;;;;29.35;13.30;;;;;;;3.37;74.93;96252.16;4926371;29;20032;-70
2020/12/04 15:13:37;;;;;;;23.17;13.65;;;;;;;3.46;75.32;96241.63;4925445;29;20392;-69
2020/12/04 15:16:04;;;;;;;25.95;15.00;;;;;;;3.54;75.10;96232.84;4919785;29;20036;-69
2020/12/04 15:18:30;;;;;;;20.08;12.63;;;;;;;3.60;74.26;96253.13;4930056;29;20035;-69
2020/12/04 15:20:55;;;;;;;27.02;14.48;;;;;;;3.50;74.77;96261.13;4918744;29;20402;-69
2020/12/04 15:23:22;;;;;;;23.98;13.13;;;;;;;3.55;74.70;96255.00;4925111;29;20036;-69
2020/12/04 15:25:49;;;;;;;24.92;13.77;;;;;;;3.53;74.89;96255.91;4925227;29;20369;-69
2020/12/04 15:28:14;;;;;;;30.33;17.42;;;;;;;3.42;75.34;96248.56;4913556;29;20119;-69
2020/12/04 15:30:40;;;;;;;29.02;15.65;;;;;;;3.41;74.78;96261.41;4930257;29;20100;-69
2020/12/04 15:33:06;;;;;;;25.48;14.70;;;;;;;3.36;74.94;96259.00;4921096;29;20027;-69
2020/12/04 15:35:32;;;;;;;30.30;15.27;;;;;;;3.24;76.54;96244.88;4923656;29;20024;-69
2020/12/04 15:37:57;;;;;;;29.20;15.45;;;;;;;3.24;76.68;96249.97;4927772;29;20030;-69
2020/12/04 15:40:24;;;;;;;29.85;14.55;;;;;;;3.23;75.51;96253.41;4917985;29;20024;-69
2020/12/04 15:42:49;;;;;;;25.02;14.93;;;;;;;3.21;75.57;96260.28;4929190;29;20401;-70
2020/12/04 15:45:14;;;;;;;25.67;14.45;;;;;;;3.17;75.77;96262.97;4922216;29;20027;-70
2020/12/04 15:47:40;;;;;;;25.63;14.63;;;;;;;3.14;75.83;96268.19;4922323;29;20028;-69
2020/12/04 15:50:07;;;;;;;29.65;15.32;;;;;;;3.12;76.22;96260.56;4927468;29;20048;-69
2020/12/04 15:52:33;;;;;;;27.00;16.50;;;;;;;3.14;76.19;96263.91;4917592;29;20055;-69
2020/12/04 15:54:58;;;;;;;35.40;20.45;;;;;;;3.12;76.76;96264.84;4927727;29;20028;-69
2020/12/04 15:57:24;;;;;;;29.50;16.20;;;;;;;3.09;77.55;96265.75;4923416;29;20066;-69
2020/12/04 15:59:49;;;;;;;31.90;17.67;;;;;;;3.07;77.72;96254.75;4921087;29;20032;-70
2020/12/04 16:02:14;;;;;;;34.22;19.45;;;;;;;2.98;78.72;96255.00;4930070;29;20031;-70
2020/12/04 16:04:40;;;;;;;32.25;18.38;;;;;;;2.93;79.46;96249.19;4917328;29;20027;-70
2020/12/04 16:07:05;;;;;;;27.58;15.02;;;;;;;2.96;78.59;96270.41;4926774;29;20023;-70
2020/12/04 16:09:31;;;;;;;29.40;14.52;;;;;;;2.98;78.21;96278.03;4938805;29;20031;-69
2020/12/04 16:11:56;;;;;;;31.13;15.90;;;;;;;2.93;78.54;96290.09;4915594;29;20028;-69
2020/12/04 16:14:22;;;;;;;29.25;15.95;;;;;;;2.99;79.52;96270.28;4927498;29;20481;-70
2020/12/04 16:16:51;;;;;;;28.42;16.20;;;;;;;3.03;79.11;96260.81;4918316;29;20030;-70
2020/12/04 16:19:17;;;;;;;30.77;16.07;;;;;;;2.90;79.12;96244.16;4925235;29;20156;-70
2020/12/04 16:21:50;;;;;;;36.55;20.15;;;;;;;2.75;79.67;96225.81;4925642;29;20043;-70
2020/12/04 16:24:17;;;;;;;34.15;19.67;;;;;;;2.84;80.78;96220.44;4917356;29;20096;-70
2020/12/04 16:26:43;;;;;;;34.08;18.88;;;;;;;2.92;79.62;96247.53;4929437;29;20080;-70
2020/12/04 16:29:08;;;;;;;37.35;19.60;;;;;;;2.81;79.58;96284.47;4921525;29;20028;-73
2020/12/04 16:31:34;;;;;;;31.65;16.48;;;;;;;2.70;79.48;96289.00;4922783;29;20036;-69
2020/12/04 16:34:00;;;;;;;31.15;14.98;;;;;;;2.76;79.52;96288.88;4927671;29;20034;-70
2020/12/04 16:36:26;;;;;;;24.02;14.50;;;;;;;2.68;79.77;96285.66;4933200;29;20113;-70
2020/12/04 16:38:53;;;;;;;26.88;15.65;;;;;;;2.67;79.42;96289.09;4936133;29;20023;-69
2020/12/04 16:41:19;;;;;;;28.33;15.43;;;;;;;2.80;79.02;96290.47;4936802;29;20059;-69
2020/12/04 16:43:44;;;;;;;29.90;14.02;;;;;;;2.71;79.24;96307.78;4934946;29;20051;-69
2020/12/04 16:46:09;;;;;;;27.33;14.68;;;;;;;2.65;79.22;96326.63;4936464;29;20028;-70
2020/12/04 16:48:36;;;;;;;30.27;15.73;;;;;;;2.46;80.00;96328.84;4936440;29;20457;-69
2020/12/04 16:51:02;;;;;;;35.92;17.10;;;;;;;2.41;80.76;96320.44;4936493;29;20028;-70
2020/12/04 16:53:28;;;;;;;30.80;16.08;;;;;;;2.42;80.82;96311.94;4934942;29;20111;-70
2020/12/04 16:55:53;;;;;;;32.55;18.33;;;;;;;2.27;81.42;96295.28;4936477;29;20059;-69
2020/12/04 16:58:19;;;;;;;33.47;17.08;;;;;;;2.28;81.20;96301.22;4936171;29;20426;-70
2020/12/04 17:00:44;;;;;;;31.90;16.83;;;;;;;2.20;81.58;96296.28;4936339;29;20425;-70
2020/12/04 17:03:10;;;;;;;26.73;15.23;;;;;;;2.25;81.09;96294.47;4936355;29;20393;-69
2020/12/04 17:05:36;;;;;;;27.38;15.60;;;;;;;2.36;81.44;96293.34;4936416;29;20473;-69
2020/12/04 17:08:01;;;;;;;30.45;16.02;;;;;;;2.27;81.35;96290.16;4936122;29;20511;-70
2020/12/04 17:10:28;;;;;;;33.67;16.83;;;;;;;2.26;81.10;96298.69;4936261;29;20473;-69
2020/12/04 17:12:54;;;;;;;33.95;18.33;;;;;;;2.27;81.34;96299.50;4936014;29;20043;-69
2020/12/04 17:15:20;;;;;;;29.05;16.23;;;;;;;2.26;81.39;96298.69;4936142;29;20074;-69
2020/12/04 17:17:45;;;;;;;31.75;16.73;;;;;;;2.38;80.95;96307.78;4935704;29;20500;-69
2020/12/04 17:20:11;;;;;;;29.10;15.95;;;;;;;2.34;81.29;96311.28;4936015;29;20028;-70
2020/12/04 17:22:36;;;;;;;29.63;16.48;;;;;;;2.12;82.33;96305.00;4935934;29;20029;-69
2020/12/04 17:25:02;;;;;;;38.35;18.13;;;;;;;1.98;83.05;96297.69;4935907;29;20503;-69
2020/12/04 17:27:27;;;;;;;32.28;17.25;;;;;;;1.92;83.78;96292.72;4935980;29;20083;-70